Time;durP1;ratioP1;P1;durP2;ratioP2;P2;SDS_P1;SDS_P2;PMS_P1;PMS_P2;Temp;Humidity;BMP_temperature;BMP_pressure;BME280_temperature;BME280_humidity;BME280_pressure;Samples;Min_cycle;Max_cycle;Signal;HPM_P1;HPM_P2
2024/01/03 00:02:20;;;;;;;;;4.50;1.00;;;;;13.11;84.56;99464.53;5081378;28;45277;-63
2024/01/03 00:04:45;;;;;;;;;4.00;1.00;;;;;13.05;84.61;99463.09;5080749;28;45407;-63
2024/01/03 00:07:11;;;;;;;;;1.00;1.00;;;;;13.09;84.60;99463.78;5061386;28;58565;-64
2024/01/03 00:09:36;;;;;;;;;3.00;2.00;;;;;13.11;84.57;99456.50;5081234;28;45438;-63
2024/01/03 00:12:03;;;;;;;;;4.25;3.00;;;;;13.07;84.60;99447.78;5089148;27;45461;-63
2024/01/03 00:14:31;;;;;;;;;7.50;1.00;;;;;13.08;84.59;99443.28;5080053;28;45390;-63
2024/01/03 00:17:03;;;;;;;;;3.00;1.50;;;;;13.13;84.40;99450.09;5081092;28;46122;-64
2024/01/03 00:19:28;;;;;;;;;5.75;3.00;;;;;13.10;84.49;99452.97;5079997;28;45400;-63
2024/01/03 00:21:53;;;;;;;;;3.00;1.00;;;;;13.14;84.79;99457.16;5069701;28;50094;-63
2024/01/03 00:24:19;;;;;;;;;3.75;2.00;;;;;13.12;84.68;99463.56;5081267;28;45398;-63
2024/01/03 00:26:45;;;;;;;;;5.25;3.00;;;;;13.15;84.77;99466.91;5079211;28;46209;-64
2024/01/03 00:29:22;;;;;;;;;7.75;3.00;;;;;13.16;84.83;99468.66;5080937;28;45465;-63
2024/01/03 00:31:48;;;;;;;;;2.25;1.50;;;;;13.13;84.88;99465.28;5059942;28;45577;-63
2024/01/03 00:34:23;;;;;;;;;2.00;1.00;;;;;13.18;84.63;99473.91;5081238;28;45327;-64
2024/01/03 00:36:53;;;;;;;;;3.75;1.50;;;;;13.12;84.61;99466.25;5079703;28;46972;-63
2024/01/03 00:39:26;;;;;;;;;1.75;1.75;;;;;13.14;84.58;99459.81;5075901;28;45335;-63
2024/01/03 00:41:52;;;;;;;;;3.00;2.50;;;;;13.11;84.86;99449.34;5082755;27;45762;-63
2024/01/03 00:44:17;;;;;;;;;2.00;2.00;;;;;13.14;84.60;99453.63;5080568;27;45332;-63
2024/01/03 00:46:43;;;;;;;;;3.25;1.75;;;;;13.15;84.57;99442.81;5061725;28;62486;-64
2024/01/03 00:49:09;;;;;;;;;2.75;2.00;;;;;13.11;84.70;99453.81;5080322;28;45449;-63
2024/01/03 00:51:34;;;;;;;;;3.00;2.00;;;;;13.04;84.81;99426.53;5080429;27;45499;-63
2024/01/03 00:54:00;;;;;;;;;1.25;1.00;;;;;13.09;84.77;99442.34;5080006;28;54836;-63
2024/01/03 00:56:27;;;;;;;;;1.25;1.00;;;;;13.10;84.63;99436.88;5080390;28;45407;-63
2024/01/03 00:58:52;;;;;;;;;4.00;1.00;;;;;13.16;84.88;99444.53;5080233;28;45374;-63
2024/01/03 01:01:17;;;;;;;;;3.50;2.50;;;;;13.10;84.68;99441.38;5079602;28;45332;-63
2024/01/03 01:03:43;;;;;;;;;2.75;1.00;;;;;13.14;84.92;99449.09;5061837;28;45778;-64
2024/01/03 01:06:08;;;;;;;;;6.00;2.00;;;;;13.15;84.78;99452.69;5080106;28;46219;-63
2024/01/03 01:08:34;;;;;;;;;4.75;2.00;;;;;13.16;84.68;99454.38;5080135;28;45385;-63
2024/01/03 01:10:59;;;;;;;;;2.00;1.00;;;;;13.14;84.22;99445.56;5063320;27;45338;-63
2024/01/03 01:13:24;;;;;;;;;3.25;1.75;;;;;13.12;84.73;99445.69;5087051;27;62774;-63
2024/01/03 01:15:49;;;;;;;;;3.75;2.00;;;;;13.11;84.55;99435.94;5079239;28;61436;-63
2024/01/03 01:18:15;;;;;;;;;2.50;2.00;;;;;13.07;84.77;99431.72;5079810;28;45316;-63
2024/01/03 01:20:40;;;;;;;;;2.25;2.00;;;;;13.14;84.61;99437.53;5075511;28;57316;-63
2024/01/03 01:23:05;;;;;;;;;2.00;2.00;;;;;12.99;84.35;99409.91;5072922;28;45314;-64
2024/01/03 01:25:31;;;;;;;;;4.00;2.25;;;;;13.11;84.51;99430.56;5079472;28;57404;-63
2024/01/03 01:27:56;;;;;;;;;1.00;1.00;;;;;13.14;84.59;99434.88;5079687;28;52451;-64
2024/01/03 01:30:21;;;;;;;;;3.50;1.50;;;;;13.12;84.70;99439.47;5079749;28;45324;-63
2024/01/03 01:32:48;;;;;;;;;4.75;2.25;;;;;13.20;84.87;99447.00;5076589;28;58541;-64
2024/01/03 01:35:13;;;;;;;;;5.00;2.75;;;;;13.21;84.75;99446.06;5079773;27;45485;-63
2024/01/03 01:37:39;;;;;;;;;2.25;2.00;;;;;13.21;84.71;99454.09;5079976;28;45514;-63
2024/01/03 01:40:05;;;;;;;;;3.00;2.00;;;;;13.06;84.65;99429.97;5061630;28;45544;-63
2024/01/03 01:42:31;;;;;;;;;4.00;1.00;;;;;13.13;85.07;99447.41;5081387;27;45604;-63
2024/01/03 01:44:57;;;;;;;;;4.25;2.25;;;;;13.06;84.70;99429.13;5079589;28;46191;-63
2024/01/03 01:47:23;;;;;;;;;4.00;2.67;;;;;13.09;85.12;99437.81;5067971;28;45339;-64
2024/01/03 01:49:48;;;;;;;;;0.25;0.25;;;;;13.00;85.05;99427.72;5079740;28;45345;-63
2024/01/03 01:52:15;;;;;;;;;4.75;3.00;;;;;13.12;85.01;99439.47;5079355;28;45335;-64
2024/01/03 01:54:41;;;;;;;;;2.50;2.00;;;;;13.19;85.08;99446.16;5079585;28;45964;-63
2024/01/03 01:57:08;;;;;;;;;2.50;1.00;;;;;13.16;84.90;99446.34;5078230;28;45276;-63
2024/01/03 01:59:34;;;;;;;;;4.50;3.00;;;;;13.20;84.88;99441.63;5076542;28;45548;-63
2024/01/03 02:02:00;;;;;;;;;2.50;1.00;;;;;13.20;85.12;99447.00;5079388;28;45470;-64
2024/01/03 02:04:27;;;;;;;;;1.75;1.50;;;;;13.22;84.89;99445.09;5078591;28;45399;-63
2024/01/03 02:06:52;;;;;;;;;5.00;1.25;;;;;13.20;85.09;99441.63;5078990;28;45435;-63
2024/01/03 02:09:17;;;;;;;;;4.00;1.75;;;;;13.17;85.19;99432.00;5079336;28;45252;-63
2024/01/03 02:11:46;;;;;;;;;1.50;1.00;;;;;13.24;85.03;99446.72;5090464;27;45482;-63
2024/01/03 02:14:12;;;;;;;;;2.00;0.00;;;;;13.26;84.95;99435.91;5079958;27;45530;-63
2024/01/03 02:16:37;;;;;;;;;3.75;3.00;;;;;13.08;85.20;99413.81;5079239;28;45474;-64
2024/01/03 02:19:05;;;;;;;;;5.25;1.00;;;;;13.24;84.99;99433.31;5078845;28;45347;-63
2024/01/03 02:21:31;;;;;;;;;2.75;2.75;;;;;13.16;85.14;99424.91;5068664;28;45606;-64
2024/01/03 02:23:56;;;;;;;;;2.00;2.00;;;;;13.16;85.04;99424.91;5077428;28;46590;-64
2024/01/03 02:26:21;;;;;;;;;3.25;2.00;;;;;13.13;85.31;99423.28;5079166;28;45488;-64
2024/01/03 02:28:47;;;;;;;;;6.25;2.75;;;;;13.19;85.57;99432.75;5078862;28;45593;-63
2024/01/03 02:31:12;;;;;;;;;4.25;1.25;;;;;13.21;85.58;99432.66;5076020;28;45630;-64
2024/01/03 02:33:37;;;;;;;;;4.00;1.75;;;;;13.14;85.65;99424.16;5078172;28;45408;-63
2024/01/03 02:36:03;;;;;;;;;3.25;2.75;;;;;13.20;85.85;99426.44;5079136;28;45499;-63
2024/01/03 02:38:28;;;;;;;;;3.25;2.00;;;;;13.18;86.00;99428.38;5060874;28;45381;-64
2024/01/03 02:40:54;;;;;;;;;8.50;1.25;;;;;13.09;86.09;99424.44;5078532;28;45241;-64
2024/01/03 02:43:19;;;;;;;;;2.50;2.00;;;;;13.21;85.60;99427.28;5073859;28;45867;-64
2024/01/03 02:45:45;;;;;;;;;5.25;2.00;;;;;13.20;85.84;99431.81;5060524;28;45408;-63
2024/01/03 02:48:10;;;;;;;;;1.50;1.25;;;;;13.13;85.90;99414.38;5078912;28;45307;-63
2024/01/03 02:50:35;;;;;;;;;4.75;1.50;;;;;13.23;86.03;99430.72;5078421;28;53280;-64
2024/01/03 02:53:02;;;;;;;;;1.50;1.25;;;;;13.12;86.27;99410.84;5056000;28;48468;-64
2024/01/03 02:55:27;;;;;;;;;4.00;2.00;;;;;13.23;86.03;99418.22;5072829;28;45498;-63
2024/01/03 02:57:53;;;;;;;;;4.00;1.00;;;;;13.23;86.26;99428.94;5078695;28;45366;-63
2024/01/03 03:00:18;;;;;;;;;7.50;2.00;;;;;13.20;86.38;99420.19;5078492;28;47089;-63
2024/01/03 03:02:43;;;;;;;;;3.75;3.00;;;;;13.19;86.25;99430.06;5078283;28;45367;-63
2024/01/03 03:05:08;;;;;;;;;5.50;1.25;;;;;13.15;86.16;99407.13;5078503;28;45362;-63
2024/01/03 03:07:34;;;;;;;;;4.25;2.25;;;;;13.23;86.31;99426.25;5078139;28;45492;-63
2024/01/03 03:09:59;;;;;;;;;1.50;0.50;;;;;13.18;86.36;99406.94;5077738;28;45449;-63
2024/01/03 03:12:24;;;;;;;;;2.75;2.25;;;;;13.21;86.38;99406.72;5090326;27;45407;-64
2024/01/03 03:14:50;;;;;;;;;4.00;3.00;;;;;13.26;86.49;99418.00;5060232;28;45377;-63
2024/01/03 03:17:15;;;;;;;;;5.25;3.75;;;;;13.18;86.71;99392.66;5078654;28;45394;-63
2024/01/03 03:19:41;;;;;;;;;1.50;1.50;;;;;13.24;86.50;99401.16;5078210;28;45685;-63
2024/01/03 03:22:06;;;;;;;;;3.00;1.75;;;;;13.21;86.40;99406.72;5070392;28;47019;-63
2024/01/03 03:24:32;;;;;;;;;1.50;1.00;;;;;13.30;86.78;99426.72;5078117;28;57298;-63
2024/01/03 03:26:57;;;;;;;;;4.25;3.00;;;;;13.29;87.49;99420.47;5077662;28;45382;-63
2024/01/03 03:29:22;;;;;;;;;3.25;2.00;;;;;13.28;88.22;99425.94;5078304;28;45525;-63
2024/01/03 03:31:48;;;;;;;;;5.75;3.75;;;;;13.20;88.73;99421.09;5075526;28;45299;-63
2024/01/03 03:34:16;;;;;;;;;3.50;3.50;;;;;13.17;88.97;99415.91;5078366;28;45283;-63
2024/01/03 03:36:42;;;;;;;;;2.00;1.00;;;;;13.22;89.42;99413.78;5078489;28;45281;-63
2024/01/03 03:39:08;;;;;;;;;6.75;1.00;;;;;13.29;89.71;99422.31;5077755;28;59285;-63
2024/01/03 03:41:33;;;;;;;;;3.50;2.00;;;;;13.19;89.79;99384.50;5084068;27;45887;-64
2024/01/03 03:43:59;;;;;;;;;2.75;2.25;;;;;13.23;89.90;99411.97;5081373;28;45308;-63
2024/01/03 03:46:24;;;;;;;;;3.00;2.00;;;;;13.16;89.98;99380.22;5081079;28;59337;-63
2024/01/03 03:48:50;;;;;;;;;1.00;1.00;;;;;13.19;90.45;99379.16;5081707;28;45451;-63
2024/01/03 03:51:15;;;;;;;;;5.25;1.00;;;;;13.17;90.33;99383.75;5079932;28;53139;-63
2024/01/03 03:53:40;;;;;;;;;3.00;2.00;;;;;13.05;90.46;99374.69;5081635;28;45457;-63
2024/01/03 03:56:06;;;;;;;;;2.50;1.50;;;;;13.19;90.40;99399.75;5080967;28;46561;-63
2024/01/03 03:58:31;;;;;;;;;2.00;1.00;;;;;13.16;90.08;99355.25;5081555;28;45381;-63
2024/01/03 04:00:56;;;;;;;;;0.00;0.00;;;;;13.05;89.70;99350.59;5081182;28;46385;-63
2024/01/03 04:03:22;;;;;;;;;0.75;0.00;;;;;13.04;89.66;99358.72;5081164;28;45390;-63
2024/01/03 04:05:47;;;;;;;;;2.00;0.00;;;;;13.05;89.54;99368.50;5081155;28;45457;-63
2024/01/03 04:08:12;;;;;;;;;2.00;0.00;;;;;13.09;90.01;99391.44;5080803;28;45513;-63
2024/01/03 04:10:38;;;;;;;;;0.00;0.00;;;;;13.04;89.81;99378.31;5063833;27;46463;-63
2024/01/03 04:13:03;;;;;;;;;0.00;0.00;;;;;13.03;89.99;99381.09;5063060;28;45355;-63
2024/01/03 04:15:29;;;;;;;;;0.00;0.00;;;;;12.94;90.15;99383.41;5081131;28;45272;-64
2024/01/03 04:17:54;;;;;;;;;1.00;0.00;;;;;12.86;90.50;99368.78;5081267;28;45396;-63
2024/01/03 04:20:20;;;;;;;;;0.00;0.00;;;;;12.95;90.71;99393.19;5079743;28;47636;-63
2024/01/03 04:22:46;;;;;;;;;0.50;0.00;;;;;13.02;90.65;99403.50;5071839;28;45843;-63
2024/01/03 04:25:12;;;;;;;;;0.00;0.00;;;;;12.98;90.65;99406.38;5077728;28;45279;-63
2024/01/03 04:27:38;;;;;;;;;0.00;0.00;;;;;12.99;90.74;99401.88;5080872;28;45394;-63
2024/01/03 04:30:04;;;;;;;;;0.00;0.00;;;;;13.01;90.86;99399.09;5079745;28;45441;-63
2024/01/03 04:32:30;;;;;;;;;2.50;0.00;;;;;13.00;91.13;99400.94;5077957;28;45720;-63
2024/01/03 04:34:55;;;;;;;;;0.00;0.00;;;;;13.01;91.15;99399.09;5081006;28;45423;-63
2024/01/03 04:37:21;;;;;;;;;0.25;0.00;;;;;12.98;90.43;99402.84;5080948;28;45504;-63
2024/01/03 04:39:46;;;;;;;;;2.00;0.00;;;;;13.05;90.23;99411.34;5079141;28;46024;-63
2024/01/03 04:42:12;;;;;;;;;0.00;0.00;;;;;13.04;90.16;99414.97;5088536;27;45552;-63
2024/01/03 04:44:37;;;;;;;;;0.00;0.00;;;;;13.00;90.16;99410.75;5080506;28;45340;-63
2024/01/03 04:47:03;;;;;;;;;1.00;0.00;;;;;12.93;90.11;99400.47;5080874;28;45688;-63
2024/01/03 04:49:29;;;;;;;;;2.25;1.00;;;;;12.99;89.95;99415.25;5080436;28;46127;-63
2024/01/03 04:51:54;;;;;;;;;0.00;0.00;;;;;12.88;89.52;99399.00;5079668;28;45333;-63
2024/01/03 04:54:19;;;;;;;;;2.00;0.75;;;;;12.94;89.71;99417.38;5079151;28;45554;-63
2024/01/03 04:56:46;;;;;;;;;2.00;0.00;;;;;12.98;89.59;99430.50;5080777;28;45481;-63
2024/01/03 04:59:11;;;;;;;;;2.00;1.00;;;;;12.91;89.62;99413.09;5062170;28;45442;-63
2024/01/03 05:01:36;;;;;;;;;2.00;1.00;;;;;13.00;89.12;99430.41;5080285;27;45368;-63
2024/01/03 05:04:01;;;;;;;;;1.00;0.00;;;;;12.98;88.88;99433.16;5079668;27;45594;-63
2024/01/03 05:06:27;;;;;;;;;1.25;0.00;;;;;13.03;88.85;99432.00;5080535;28;45457;-63
2024/01/03 05:08:52;;;;;;;;;0.50;0.00;;;;;12.93;88.91;99413.84;5080028;28;45692;-63
2024/01/03 05:11:17;;;;;;;;;3.00;0.00;;;;;12.91;88.67;99409.53;5080393;28;45354;-63
2024/01/03 05:13:43;;;;;;;;;0.00;0.00;;;;;12.94;88.89;99414.69;5078039;28;45418;-63
2024/01/03 05:16:08;;;;;;;;;0.50;0.00;;;;;12.88;88.56;99418.63;5079612;28;59937;-63
2024/01/03 05:18:33;;;;;;;;;1.50;0.00;;;;;13.01;88.15;99442.81;5079867;28;45490;-63
2024/01/03 05:20:59;;;;;;;;;1.25;0.75;;;;;12.90;87.87;99427.44;5074131;28;45533;-63
2024/01/03 05:23:24;;;;;;;;;0.00;0.00;;;;;12.95;87.35;99436.03;5075468;28;45332;-63
2024/01/03 05:25:49;;;;;;;;;0.00;0.00;;;;;12.95;87.55;99436.03;5080143;28;45592;-63
2024/01/03 05:28:15;;;;;;;;;1.00;0.50;;;;;13.01;87.62;99437.44;5079659;28;49304;-63
2024/01/03 05:30:40;;;;;;;;;0.00;0.00;;;;;12.96;87.15;99432.41;5079752;27;50227;-63
2024/01/03 05:33:06;;;;;;;;;0.25;0.00;;;;;12.96;87.11;99436.88;5082307;27;45529;-63
2024/01/03 05:35:31;;;;;;;;;0.00;0.00;;;;;13.00;87.29;99443.78;5079968;28;45664;-63
2024/01/03 05:37:56;;;;;;;;;0.00;0.00;;;;;13.02;87.41;99452.56;5061570;28;47130;-63
2024/01/03 05:40:22;;;;;;;;;1.75;0.00;;;;;13.00;87.57;99449.16;5079625;28;45352;-63
2024/01/03 05:42:47;;;;;;;;;1.50;0.00;;;;;12.91;87.62;99439.88;5079502;28;45434;-63
2024/01/03 05:45:12;;;;;;;;;2.00;0.00;;;;;12.98;87.52;99459.94;5078750;28;45469;-63
2024/01/03 05:47:38;;;;;;;;;1.00;0.00;;;;;12.93;87.92;99447.78;5061220;28;45917;-63
2024/01/03 05:50:03;;;;;;;;;0.75;0.00;;;;;13.01;88.05;99474.09;5079027;28;61076;-63
2024/01/03 05:52:29;;;;;;;;;2.25;0.00;;;;;12.90;88.06;99459.56;5079403;28;45520;-63
2024/01/03 05:54:54;;;;;;;;;3.00;0.00;;;;;12.98;88.16;99480.53;5079659;28;45344;-63
2024/01/03 05:57:20;;;;;;;;;1.00;0.00;;;;;12.93;88.52;99478.13;5078222;28;46159;-63
2024/01/03 05:59:45;;;;;;;;;0.75;0.50;;;;;12.98;88.45;99491.25;5057533;28;45331;-64
2024/01/03 06:02:11;;;;;;;;;0.00;0.00;;;;;12.96;88.77;99487.78;5074868;28;45329;-63
2024/01/03 06:04:37;;;;;;;;;1.00;0.00;;;;;12.93;88.54;99471.91;5079133;28;45426;-64
2024/01/03 06:07:02;;;;;;;;;0.50;0.50;;;;;12.97;88.86;99485.00;5078262;28;47356;-63
2024/01/03 06:09:28;;;;;;;;;5.00;1.00;;;;;13.02;88.89;99481.19;5065805;28;45375;-63
2024/01/03 06:11:53;;;;;;;;;1.00;1.00;;;;;12.94;88.85;99470.94;5079140;28;50874;-63
2024/01/03 06:14:18;;;;;;;;;2.00;0.75;;;;;12.97;88.33;99487.69;5078175;28;45612;-63
2024/01/03 06:16:44;;;;;;;;;3.25;1.25;;;;;13.00;88.73;99477.72;5060083;28;57306;-63
2024/01/03 06:19:09;;;;;;;;;0.00;0.00;;;;;13.03;88.62;99483.78;5075152;28;45583;-63
2024/01/03 06:21:34;;;;;;;;;0.00;0.00;;;;;12.99;88.59;99471.53;5070496;28;45519;-63
2024/01/03 06:24:00;;;;;;;;;2.75;1.75;;;;;13.04;88.48;99465.88;5076390;28;45395;-63
2024/01/03 06:26:30;;;;;;;;;2.00;1.00;;;;;12.99;88.70;99466.16;5078015;28;45881;-63
2024/01/03 06:28:55;;;;;;;;;3.75;1.50;;;;;12.98;88.81;99470.66;5084984;27;45384;-63
2024/01/03 06:31:21;;;;;;;;;2.50;1.00;;;;;12.97;88.61;99476.97;5075146;28;45557;-63
2024/01/03 06:33:47;;;;;;;;;1.00;1.00;;;;;13.04;88.57;99485.47;5078792;28;45628;-63
2024/01/03 06:36:13;;;;;;;;;3.00;1.00;;;;;13.04;88.57;99484.63;5078849;28;45965;-63
2024/01/03 06:38:38;;;;;;;;;1.00;1.00;;;;;13.08;88.53;99497.75;5078842;28;52374;-63
2024/01/03 06:41:03;;;;;;;;;4.50;2.00;;;;;13.05;88.18;99502.44;5078048;28;52136;-63
2024/01/03 06:43:29;;;;;;;;;4.50;2.00;;;;;12.98;88.41;99491.25;5058838;28;60643;-63
2024/01/03 06:45:55;;;;;;;;;3.25;1.25;;;;;13.02;88.36;99506.16;5078357;28;53076;-63
2024/01/03 06:48:20;;;;;;;;;1.00;1.00;;;;;13.00;88.76;99505.41;5076588;28;45495;-63
2024/01/03 06:50:46;;;;;;;;;1.50;0.25;;;;;12.91;88.58;99504.16;5078660;28;45387;-63
2024/01/03 06:53:12;;;;;;;;;0.75;0.75;;;;;12.98;88.89;99512.66;5078758;28;45406;-63
2024/01/03 06:55:37;;;;;;;;;2.00;1.00;;;;;12.90;88.72;99499.75;5077826;28;46124;-63
2024/01/03 06:58:02;;;;;;;;;2.50;0.75;;;;;12.91;88.22;99501.47;5077911;27;57324;-63
2024/01/03 07:00:28;;;;;;;;;2.25;1.00;;;;;12.90;88.56;99498.91;5076716;28;45302;-63
2024/01/03 07:02:53;;;;;;;;;2.25;2.00;;;;;12.93;88.75;99520.97;5078198;28;50494;-63
2024/01/03 07:05:18;;;;;;;;;2.00;0.00;;;;;12.90;88.56;99517.63;5078169;28;46198;-63
2024/01/03 07:07:43;;;;;;;;;4.00;1.00;;;;;12.92;88.52;99513.03;5077808;28;45430;-63
2024/01/03 07:10:09;;;;;;;;;3.75;1.25;;;;;12.90;88.82;99515.81;5078288;28;45355;-63
2024/01/03 07:12:34;;;;;;;;;1.00;1.00;;;;;12.77;88.49;99490.75;5078208;28;45228;-63
2024/01/03 07:15:00;;;;;;;;;2.00;1.00;;;;;12.90;88.73;99517.63;5077799;28;45593;-64
2024/01/03 07:17:25;;;;;;;;;1.25;1.25;;;;;12.89;88.69;99516.75;5078361;28;45442;-63
2024/01/03 07:19:50;;;;;;;;;1.00;0.25;;;;;12.88;88.61;99511.50;5080794;27;45303;-68
2024/01/03 07:22:15;;;;;;;;;3.50;1.75;;;;;12.88;88.74;99511.50;5070944;28;46466;-67
2024/01/03 07:24:41;;;;;;;;;6.50;1.00;;;;;12.76;88.87;99491.69;5081872;28;45419;-67
2024/01/03 07:27:07;;;;;;;;;3.25;2.75;;;;;12.75;88.93;99495.34;5061516;28;45299;-68
2024/01/03 07:29:32;;;;;;;;;1.25;1.00;;;;;12.82;88.62;99503.84;5063097;28;45432;-67
2024/01/03 07:31:57;;;;;;;;;4.00;2.25;;;;;12.79;88.70;99507.56;5080130;28;57058;-66
2024/01/03 07:34:22;;;;;;;;;3.75;1.00;;;;;12.88;88.84;99517.72;5060295;28;47527;-67
2024/01/03 07:36:49;;;;;;;;;1.75;1.75;;;;;12.85;88.75;99517.91;5081322;28;45427;-67
2024/01/03 07:39:14;;;;;;;;;7.50;3.00;;;;;12.79;88.68;99507.56;5062648;28;45484;-66
2024/01/03 07:41:40;;;;;;;;;4.50;1.00;;;;;12.76;88.79;99514.00;5079329;28;45897;-66
2024/01/03 07:44:05;;;;;;;;;6.00;3.25;;;;;12.86;88.82;99526.81;5079931;28;45387;-66
2024/01/03 07:46:30;;;;;;;;;5.25;3.00;;;;;12.90;88.51;99537.25;5079802;28;45359;-67
2024/01/03 07:48:56;;;;;;;;;3.50;2.50;;;;;12.84;89.02;99518.00;5058351;28;45571;-67
2024/01/03 07:51:21;;;;;;;;;3.75;2.00;;;;;12.90;88.58;99533.72;5080907;27;45474;-67
2024/01/03 07:53:46;;;;;;;;;6.50;4.00;;;;;12.90;88.63;99537.25;5079368;28;46420;-63
2024/01/03 07:56:12;;;;;;;;;1.75;1.75;;;;;12.90;88.52;99534.56;5078584;28;45536;-63
2024/01/03 07:58:37;;;;;;;;;5.00;3.25;;;;;12.88;88.35;99541.84;5081313;28;45444;-63
2024/01/03 08:01:03;;;;;;;;;2.50;2.25;;;;;12.88;88.45;99539.16;5082263;27;45235;-65
2024/01/03 08:03:28;;;;;;;;;7.00;3.25;;;;;12.84;88.82;99539.44;5078170;28;45418;-66
2024/01/03 08:05:54;;;;;;;;;5.25;4.00;;;;;12.86;88.99;99556.25;5079735;28;45346;-63
2024/01/03 08:08:19;;;;;;;;;7.25;5.50;;;;;12.78;88.59;99521.94;5077984;27;45453;-63
2024/01/03 08:10:44;;;;;;;;;4.00;2.00;;;;;12.92;88.27;99539.81;5078621;28;45548;-63
2024/01/03 08:13:11;;;;;;;;;2.00;2.00;;;;;12.91;87.99;99547.00;5076616;28;46372;-63
2024/01/03 08:15:36;;;;;;;;;2.00;1.00;;;;;12.86;88.16;99541.03;5077201;28;45394;-63
2024/01/03 08:18:02;;;;;;;;;4.00;1.00;;;;;12.95;88.10;99551.22;5059840;28;46505;-63
2024/01/03 08:20:27;;;;;;;;;3.50;1.75;;;;;12.93;88.50;99560.28;5076249;28;45318;-63
2024/01/03 08:22:52;;;;;;;;;0.50;0.50;;;;;12.88;89.00;99555.22;5077816;28;49138;-63
2024/01/03 08:25:17;;;;;;;;;3.75;2.00;;;;;12.94;89.29;99551.31;5076731;28;45548;-63
2024/01/03 08:27:43;;;;;;;;;3.00;1.00;;;;;12.94;89.80;99572.72;5076351;27;45512;-63
2024/01/03 08:30:08;;;;;;;;;5.75;3.00;;;;;12.87;90.01;99549.97;5087434;27;46530;-64
2024/01/03 08:32:37;;;;;;;;;4.50;3.00;;;;;12.96;90.31;99569.03;5078911;28;45561;-63
2024/01/03 08:35:03;;;;;;;;;5.00;1.00;;;;;12.94;90.79;99564.69;5061134;28;45443;-64
2024/01/03 08:37:29;;;;;;;;;2.50;2.25;;;;;12.99;90.42;99578.66;5056933;28;45402;-65
2024/01/03 08:39:55;;;;;;;;;3.50;1.25;;;;;12.88;90.70;99547.19;5075968;28;45942;-65
2024/01/03 08:42:23;;;;;;;;;6.25;1.00;;;;;12.84;90.87;99536.75;5058326;28;48440;-65
2024/01/03 08:44:48;;;;;;;;;8.50;3.00;;;;;12.89;91.01;99548.03;5078185;28;45527;-65
2024/01/03 08:47:13;;;;;;;;;3.25;2.00;;;;;12.86;91.10;99550.91;5059552;28;45501;-65
2024/01/03 08:49:39;;;;;;;;;3.25;1.75;;;;;12.86;91.02;99542.88;5076127;28;45414;-65
2024/01/03 08:52:04;;;;;;;;;1.25;1.00;;;;;12.93;91.00;99557.59;5078625;28;45442;-65
2024/01/03 08:54:30;;;;;;;;;2.25;1.00;;;;;12.89;90.95;99548.91;5075958;28;45740;-65
2024/01/03 08:56:55;;;;;;;;;2.25;1.00;;;;;12.92;91.05;99561.25;5077747;28;45514;-65
2024/01/03 08:59:20;;;;;;;;;2.50;1.75;;;;;12.81;91.01;99532.44;5079894;27;45874;-65
2024/01/03 09:01:50;;;;;;;;;2.25;2.25;;;;;12.74;91.07;99528.41;5088209;27;46357;-65
2024/01/03 09:04:16;;;;;;;;;1.75;1.75;;;;;12.85;90.68;99535.81;5078502;28;45796;-65
2024/01/03 09:06:41;;;;;;;;;4.25;2.00;;;;;12.91;90.91;99556.84;5078934;27;57156;-65
2024/01/03 09:09:06;;;;;;;;;0.50;0.00;;;;;12.91;90.84;99557.72;5078044;27;58560;-65
2024/01/03 09:11:31;;;;;;;;;3.75;2.00;;;;;12.85;90.96;99551.88;5058728;28;51567;-65
2024/01/03 09:13:57;;;;;;;;;7.75;5.00;;;;;12.89;90.54;99561.44;5074052;27;55812;-65
2024/01/03 09:16:23;;;;;;;;;4.75;3.75;;;;;12.91;90.69;99544.34;5075861;28;45436;-65
2024/01/03 09:18:49;;;;;;;;;3.00;2.00;;;;;12.92;90.44;99554.06;5076160;28;45627;-65
2024/01/03 09:21:15;;;;;;;;;6.50;3.00;;;;;12.94;90.46;99562.88;5077188;27;46109;-65
2024/01/03 09:23:41;;;;;;;;;4.00;1.25;;;;;12.87;90.33;99541.94;5076438;28;45555;-65
2024/01/03 09:26:08;;;;;;;;;4.75;2.75;;;;;12.91;90.11;99544.34;5059767;28;45564;-64
2024/01/03 09:28:35;;;;;;;;;3.75;3.75;;;;;12.98;89.90;99559.06;5077927;28;45340;-63
2024/01/03 09:31:04;;;;;;;;;8.00;4.00;;;;;12.98;90.16;99560.88;5078252;28;45344;-62
2024/01/03 09:33:30;;;;;;;;;5.00;2.50;;;;;12.91;90.27;99547.00;5073173;28;45678;-63
2024/01/03 09:35:55;;;;;;;;;8.75;3.00;;;;;12.97;90.15;99557.31;5077978;28;45387;-63
2024/01/03 09:38:20;;;;;;;;;9.00;4.00;;;;;12.96;90.40;99549.38;5071884;28;45644;-62
2024/01/03 09:40:46;;;;;;;;;4.25;3.00;;;;;12.91;90.05;99557.72;5077194;28;65219;-62
2024/01/03 09:43:12;;;;;;;;;2.50;2.50;;;;;13.00;90.40;99575.03;5075587;27;45582;-63
2024/01/03 09:45:38;;;;;;;;;3.50;3.50;;;;;12.98;90.07;99576.97;5077012;28;55804;-63
2024/01/03 09:48:04;;;;;;;;;8.00;5.25;;;;;13.01;90.11;99541.91;5076919;28;45674;-63
2024/01/03 09:50:31;;;;;;;;;7.50;4.25;;;;;13.04;90.48;99551.59;5072612;28;47287;-63
2024/01/03 09:52:57;;;;;;;;;5.00;2.00;;;;;13.06;90.34;99560.41;5076404;27;46556;-62
2024/01/03 09:55:23;;;;;;;;;3.75;3.00;;;;;13.09;90.01;99555.72;5077225;27;51434;-66
2024/01/03 09:57:50;;;;;;;;;3.00;2.00;;;;;13.05;90.18;99551.50;5078072;28;45692;-66
2024/01/03 10:00:16;;;;;;;;;8.75;3.25;;;;;13.08;90.28;99563.84;5078068;28;45435;-66
2024/01/03 10:02:45;;;;;;;;;7.00;2.00;;;;;13.09;90.42;99562.91;5078627;28;45569;-66
2024/01/03 10:05:18;;;;;;;;;6.25;4.00;;;;;13.04;90.39;99563.16;5077816;28;45400;-65
2024/01/03 10:07:44;;;;;;;;;5.00;2.00;;;;;13.02;90.64;99556.19;5077627;28;45414;-66
2024/01/03 10:10:10;;;;;;;;;5.00;2.75;;;;;13.10;90.61;99575.34;5077504;27;46980;-65
2024/01/03 10:12:35;;;;;;;;;8.00;4.50;;;;;13.08;90.88;99559.38;5078445;28;45473;-66
2024/01/03 10:15:30;;;;;;;;;5.25;4.00;;;;;13.10;91.00;99573.53;5067654;28;45858;-65
2024/01/03 10:18:08;;;;;;;;;6.25;3.25;;;;;13.08;91.05;99563.84;5064915;27;45426;-65
2024/01/03 10:20:34;;;;;;;;;7.50;3.00;;;;;13.06;90.91;99563.94;5078212;27;46454;-65
2024/01/03 10:23:05;;;;;;;;;3.25;2.00;;;;;13.08;91.34;99566.53;5075577;28;45757;-65
2024/01/03 10:25:31;;;;;;;;;4.75;3.00;;;;;13.06;91.23;99561.25;5063012;28;45497;-65
2024/01/03 10:28:03;;;;;;;;;5.00;2.00;;;;;13.10;91.23;99565.47;5080491;27;45391;-65
2024/01/03 10:30:29;;;;;;;;;5.00;1.75;;;;;13.12;91.03;99552.84;5078823;28;47686;-65
2024/01/03 10:33:08;;;;;;;;;1.00;1.00;;;;;13.05;90.97;99537.25;5071512;28;45883;-65
2024/01/03 10:35:35;;;;;;;;;8.50;3.25;;;;;13.12;91.48;99541.28;5078685;28;45449;-65
2024/01/03 10:38:02;;;;;;;;;8.75;3.75;;;;;13.12;91.36;99535.91;5079804;27;45505;-65
2024/01/03 10:40:33;;;;;;;;;5.50;2.00;;;;;13.11;91.21;99544.91;5078681;28;45666;-65
2024/01/03 10:43:00;;;;;;;;;4.50;3.00;;;;;13.16;91.17;99551.72;5053988;28;45601;-65
2024/01/03 10:45:25;;;;;;;;;6.25;4.75;;;;;13.19;91.03;99547.13;5078476;28;45428;-65
2024/01/03 10:47:51;;;;;;;;;5.25;2.00;;;;;13.21;91.31;99542.50;5077303;28;45407;-65
2024/01/03 10:50:17;;;;;;;;;5.00;4.00;;;;;13.20;91.10;99532.75;5076234;28;46122;-65
2024/01/03 10:52:43;;;;;;;;;5.25;1.00;;;;;13.23;90.87;99551.31;5059083;28;45530;-65
2024/01/03 10:55:20;;;;;;;;;3.75;1.50;;;;;13.20;91.08;99536.31;5078386;28;45714;-65
2024/01/03 10:57:56;;;;;;;;;4.50;1.75;;;;;13.26;90.42;99535.91;5081147;28;45349;-65
2024/01/03 11:00:50;;;;;;;;;6.25;4.50;;;;;13.25;90.38;99530.66;5081520;28;45894;-65
2024/01/03 11:03:39;;;;;;;;;7.50;3.25;;;;;13.31;90.25;99530.25;5080800;28;45360;-65
2024/01/03 11:06:23;;;;;;;;;3.25;1.50;;;;;13.33;90.29;99529.25;5082079;28;45829;-65
2024/01/03 11:08:51;;;;;;;;;4.25;3.00;;;;;13.33;90.26;99539.97;5061150;28;45411;-65
2024/01/03 11:11:40;;;;;;;;;7.25;3.25;;;;;13.36;90.16;99527.31;5081628;28;45414;-65
2024/01/03 11:14:18;;;;;;;;;5.50;2.00;;;;;13.39;90.30;99538.72;5070162;27;45450;-65
2024/01/03 11:16:44;;;;;;;;;2.50;2.25;;;;;13.33;90.03;99509.59;5077654;27;45384;-65
2024/01/03 11:19:10;;;;;;;;;5.25;4.00;;;;;13.42;89.41;99524.25;5077538;27;45496;-66
2024/01/03 11:21:35;;;;;;;;;4.50;2.50;;;;;13.49;89.66;99528.25;5057832;28;47315;-65
2024/01/03 11:24:07;;;;;;;;;3.00;3.00;;;;;13.51;89.56;99526.34;5078524;28;45635;-65
2024/01/03 11:26:51;;;;;;;;;6.00;4.00;;;;;13.52;89.48;99510.16;5070358;27;45403;-66
2024/01/03 11:29:35;;;;;;;;;3.25;2.50;;;;;13.48;89.23;99486.31;5073646;28;45364;-66
2024/01/03 11:32:07;;;;;;;;;4.00;2.75;;;;;13.53;88.95;99501.16;5061968;28;47074;-65